Terminal Aerodrome Forecast
Issued by NWS Tulsa, OK

Home | Current Version | Previous Version | Text Only | Print | Product List | Glossary On
Versions: 1 2 3 4 5 6 7 8 9 10 11 12 13
000
FTUS44 KTSA 222337
TAFFSM
TAF
KFSM 222337Z 2300/2324 11005KT P6SM FEW040 BKN200
     FM230200 07003KT P6SM SCT150
     FM231300 08005KT P6SM SCT035 BKN150
     FM231800 12007KT P6SM VCTS SCT045CB BKN120=

USA.gov is the U.S. government's official web portal to all federal, state and local government web resources and services.